createdAt,value
2023-04-04T00:04:42.571Z,103121.88
2023-04-04T00:09:44.116Z,103121.09
2023-04-04T00:14:45.673Z,103107.66
2023-04-04T00:19:47.269Z,103105.00
2023-04-04T00:24:49.043Z,103096.41
2023-04-04T00:29:50.575Z,103090.69
2023-04-04T00:34:53.601Z,103087.03
2023-04-04T00:39:55.243Z,103093.41
2023-04-04T00:44:56.795Z,103080.19
2023-04-04T00:49:58.408Z,103086.47
2023-04-04T00:55:00.518Z,103087.69
2023-04-04T01:00:05.150Z,103083.09
2023-04-04T01:05:08.318Z,103079.75
2023-04-04T01:10:11.466Z,103071.84
2023-04-04T01:15:13.024Z,103072.97
2023-04-04T01:20:16.127Z,103077.00
2023-04-04T01:25:19.245Z,103075.09
2023-04-04T01:30:20.912Z,103071.81
2023-04-04T01:35:34.528Z,103081.66
2023-04-04T01:40:38.366Z,103083.19
2023-04-04T01:45:40.793Z,103084.94
2023-04-04T01:50:42.617Z,103068.28
2023-04-04T01:55:44.767Z,103077.41
2023-04-04T02:00:46.373Z,103065.94
2023-04-04T02:05:48.622Z,103059.22
2023-04-04T02:10:50.355Z,103061.06
2023-04-04T02:15:52.350Z,103055.72
2023-04-04T02:20:57.685Z,103056.81
2023-04-04T02:25:59.360Z,103064.13
2023-04-04T02:31:04.614Z,103063.16
2023-04-04T02:36:06.382Z,103057.03
2023-04-04T02:41:07.947Z,103056.44
2023-04-04T02:46:20.556Z,103054.47
2023-04-04T02:51:23.385Z,103047.16
2023-04-04T02:56:24.908Z,103041.66
2023-04-04T03:01:26.527Z,103033.59
2023-04-04T03:06:31.898Z,103039.06
2023-04-04T03:11:33.453Z,103022.41
2023-04-04T03:16:34.993Z,103036.44
2023-04-04T03:21:36.789Z,103036.38
2023-04-04T03:26:38.353Z,103035.16
2023-04-04T03:31:40.083Z,103030.84
2023-04-04T03:36:41.606Z,103038.00
2023-04-04T03:41:43.069Z,103036.09
2023-04-04T03:46:44.551Z,103042.31
2023-04-04T03:51:46.088Z,103039.25
2023-04-04T03:56:48.082Z,103042.03
2023-04-04T04:01:49.621Z,103035.00
2023-04-04T04:06:51.301Z,103038.66
2023-04-04T04:11:52.891Z,103045.97
2023-04-04T04:16:54.423Z,103046.88
2023-04-04T04:21:56.224Z,103042.72
2023-04-04T04:26:57.770Z,103032.47
2023-04-04T04:31:59.319Z,103039.59
2023-04-04T04:37:00.890Z,103036.25
2023-04-04T04:42:03.148Z,103037.28
2023-04-04T04:47:04.760Z,103036.81
2023-04-04T04:52:06.736Z,103048.66
2023-04-04T04:57:08.310Z,103045.56
2023-04-04T05:02:09.854Z,103053.78
2023-04-04T05:07:12.464Z,103039.38
2023-04-04T05:12:14.014Z,103040.06
2023-04-04T05:17:15.626Z,103048.41
2023-04-04T05:22:17.182Z,103038.19
2023-04-04T05:27:18.642Z,103046.38
2023-04-04T05:32:25.623Z,103038.63
2023-04-04T05:37:27.772Z,103036.19
2023-04-04T05:42:29.524Z,103037.25
2023-04-04T05:47:31.287Z,103040.09
2023-04-04T05:52:32.850Z,103033.16
2023-04-04T05:57:35.789Z,103032.31
2023-04-04T06:02:37.422Z,103028.38
2023-04-04T06:07:39.099Z,103032.53
2023-04-04T06:12:41.083Z,103027.84
2023-04-04T06:17:42.736Z,103036.09
2023-04-04T06:22:44.210Z,103045.09
2023-04-04T06:27:45.715Z,103052.38
2023-04-04T06:32:47.998Z,103054.00
2023-04-04T06:37:55.859Z,103066.03
2023-04-04T06:42:58.369Z,103054.38
2023-04-04T06:48:00.204Z,103059.44
2023-04-04T06:53:02.320Z,103067.47
2023-04-04T06:58:03.872Z,103062.19
2023-04-04T07:03:05.405Z,103068.06
2023-04-04T07:08:07.065Z,103069.09
2023-04-04T07:13:08.641Z,103059.69
2023-04-04T07:18:10.216Z,103063.41
2023-04-04T07:23:11.889Z,103062.19
2023-04-04T07:28:13.748Z,103059.75
2023-04-04T07:33:15.614Z,103050.31
2023-04-04T07:38:17.606Z,103053.34
2023-04-04T07:43:19.060Z,103046.94
2023-04-04T07:48:22.473Z,103053.19
2023-04-04T07:53:24.633Z,103051.47
2023-04-04T07:58:26.202Z,103046.53
2023-04-04T08:03:28.131Z,103045.03
2023-04-04T08:08:29.845Z,103033.81
2023-04-04T08:13:31.556Z,103041.31
2023-04-04T08:18:33.578Z,103032.66
2023-04-04T08:23:35.284Z,103033.84
2023-04-04T08:28:36.907Z,103036.84
2023-04-04T08:33:47.239Z,103032.66
2023-04-04T08:38:49.430Z,103038.19
2023-04-04T08:43:54.719Z,103031.88
2023-04-04T08:48:58.723Z,103028.75
2023-04-04T08:54:01.494Z,103042.66
2023-04-04T08:59:03.306Z,103041.72
2023-04-04T09:04:05.948Z,103038.47
2023-04-04T09:09:07.777Z,103034.59
2023-04-04T09:14:09.308Z,103023.03
2023-04-04T09:19:10.778Z,103029.34
2023-04-04T09:24:12.276Z,103028.00
2023-04-04T09:29:14.222Z,103035.59
2023-04-04T09:34:18.687Z,103027.59
2023-04-04T09:39:21.130Z,103032.53
2023-04-04T09:44:24.284Z,103028.66
2023-04-04T09:49:26.493Z,103024.66
2023-04-04T09:54:31.234Z,103031.50
2023-04-04T09:59:34.039Z,103025.56
2023-04-04T10:04:35.757Z,103020.13
2023-04-04T10:09:37.839Z,103033.38
2023-04-04T10:14:39.412Z,103025.16
2023-04-04T10:19:41.576Z,103017.44
2023-04-04T10:24:43.114Z,103020.91
2023-04-04T10:29:44.729Z,103015.69
2023-04-04T10:34:55.600Z,103016.22
2023-04-04T10:40:04.407Z,103014.34
2023-04-04T10:45:20.313Z,103002.38
2023-04-04T10:50:23.699Z,103001.66
2023-04-04T10:55:25.916Z,103001.81
2023-04-04T11:00:27.570Z,102997.19
2023-04-04T11:05:40.895Z,102993.03
2023-04-04T11:10:43.577Z,103001.81
2023-04-04T11:15:51.566Z,102984.81
2023-04-04T11:20:54.397Z,102980.94
2023-04-04T11:25:57.033Z,102980.28
2023-04-04T11:31:34.870Z,102974.13
2023-04-04T11:36:36.584Z,102969.81
2023-04-04T11:41:47.761Z,102968.41
2023-04-04T11:47:02.427Z,102962.72
2023-04-04T11:52:12.717Z,102950.72
2023-04-04T11:57:15.754Z,102952.72
2023-04-04T12:02:22.056Z,102949.63
2023-04-04T12:07:24.712Z,102941.31
2023-04-04T12:12:28.370Z,102925.97
2023-04-04T12:17:29.934Z,102924.44
2023-04-04T12:22:35.406Z,102928.22
2023-04-04T12:27:38.554Z,102917.69
2023-04-04T12:32:40.071Z,102919.38
2023-04-04T12:38:11.012Z,102909.09
2023-04-04T12:43:17.474Z,102909.72
2023-04-04T12:48:19.800Z,102899.19
2023-04-04T12:53:29.373Z,102907.41
2023-04-04T12:58:33.029Z,102888.34
2023-04-04T13:03:38.010Z,102873.06
2023-04-04T13:08:56.430Z,102876.22
2023-04-04T13:14:04.327Z,102866.00
2023-04-04T13:19:06.768Z,102866.56
2023-04-04T13:24:08.373Z,102866.25
2023-04-04T13:29:10.049Z,102845.53
2023-04-04T13:34:11.537Z,102851.06
2023-04-04T13:39:13.119Z,102840.91
2023-04-04T13:44:16.505Z,102837.66
2023-04-04T13:49:18.144Z,102832.75
2023-04-04T13:54:19.664Z,102828.47
2023-04-04T13:59:21.307Z,102819.75
2023-04-04T14:04:24.211Z,102812.53
2023-04-04T14:09:26.163Z,102820.25
2023-04-04T14:14:27.715Z,102809.69
2023-04-04T14:19:29.253Z,102813.16
2023-04-04T14:24:30.970Z,102811.78
2023-04-04T14:29:32.497Z,102798.63
2023-04-04T14:34:33.983Z,102799.19
2023-04-04T14:39:35.619Z,102803.44
2023-04-04T14:44:37.170Z,102796.28
2023-04-04T14:49:38.688Z,102791.81
2023-04-04T14:54:40.471Z,102780.31
2023-04-04T14:59:42.201Z,102773.50
2023-04-04T15:04:43.924Z,102762.59
2023-04-04T15:09:45.619Z,102747.59
2023-04-04T15:14:47.172Z,102762.28
2023-04-04T15:19:48.699Z,102750.09
2023-04-04T15:24:50.222Z,102746.63
2023-04-04T15:29:52.670Z,102739.66
2023-04-04T15:34:55.570Z,102739.00
2023-04-04T15:39:57.079Z,102737.91
2023-04-04T15:44:58.641Z,102746.41
2023-04-04T15:50:00.172Z,102739.66
2023-04-04T15:55:02.083Z,102736.94
2023-04-04T16:00:04.234Z,102735.94
2023-04-04T16:05:06.142Z,102725.84
2023-04-04T16:10:08.315Z,102725.16
2023-04-04T16:15:11.756Z,102720.19
2023-04-04T16:20:13.298Z,102718.19
2023-04-04T16:25:15.081Z,102720.91
2023-04-04T16:30:19.397Z,102710.13
2023-04-04T16:35:21.212Z,102705.59
2023-04-04T16:40:22.675Z,102701.53
2023-04-04T16:45:24.243Z,102690.66
2023-04-04T16:50:25.838Z,102703.72
2023-04-04T16:55:28.874Z,102689.22
2023-04-04T17:00:32.779Z,102684.72
2023-04-04T17:05:34.347Z,102682.06
2023-04-04T17:10:40.235Z,102687.44
2023-04-04T17:15:42.039Z,102678.25
2023-04-04T17:20:43.702Z,102670.25
2023-04-04T17:25:45.623Z,102662.84
2023-04-04T17:30:47.165Z,102664.88
2023-04-04T17:35:48.682Z,102676.16
2023-04-04T17:40:50.286Z,102670.13
2023-04-04T17:45:52.508Z,102675.44
2023-04-04T17:50:54.139Z,102669.16
2023-04-04T17:55:56.580Z,102672.91
2023-04-04T18:00:58.390Z,102680.63
2023-04-04T18:06:00.039Z,102674.16
2023-04-04T18:11:03.884Z,102680.28
2023-04-04T18:16:07.227Z,102677.97
2023-04-04T18:21:08.941Z,102687.09
2023-04-04T18:26:10.444Z,102685.84
2023-04-04T18:31:12.774Z,102680.63
2023-04-04T18:36:14.324Z,102685.56
2023-04-04T18:41:17.364Z,102679.25
2023-04-04T18:46:18.955Z,102682.16
2023-04-04T18:51:22.169Z,102685.94
2023-04-04T18:56:25.017Z,102695.38
2023-04-04T19:01:27.165Z,102694.38
2023-04-04T19:06:30.937Z,102696.91
2023-04-04T19:11:32.511Z,102701.25
2023-04-04T19:16:34.229Z,102694.78
2023-04-04T19:21:35.817Z,102690.50
2023-04-04T19:26:38.182Z,102694.09
2023-04-04T19:31:39.698Z,102689.72
2023-04-04T19:36:41.863Z,102696.81
2023-04-04T19:41:43.433Z,102697.09
2023-04-04T19:46:44.949Z,102688.53
2023-04-04T19:51:50.585Z,102690.00
2023-04-04T19:57:04.781Z,102668.94
2023-04-04T20:02:13.947Z,102663.34
2023-04-04T20:07:16.050Z,102660.31
2023-04-04T20:12:19.437Z,102661.19
2023-04-04T20:17:21.103Z,102653.44
2023-04-04T20:22:23.215Z,102651.69
2023-04-04T20:27:26.649Z,102659.72
2023-04-04T20:32:28.183Z,102651.13
2023-04-04T20:37:30.874Z,102654.41
2023-04-04T20:42:37.889Z,102653.16
2023-04-04T20:47:52.413Z,102648.72
2023-04-04T20:52:59.291Z,102648.59
2023-04-04T20:58:08.605Z,102655.59
2023-04-04T21:03:30.032Z,102653.75
2023-04-04T21:08:44.776Z,102655.06
2023-04-04T21:13:46.749Z,102647.16
2023-04-04T21:18:48.313Z,102650.41
2023-04-04T21:24:00.020Z,102659.00
2023-04-04T21:29:05.157Z,102646.97
2023-04-04T21:34:17.578Z,102643.50
2023-04-04T21:39:23.872Z,102635.56
2023-04-04T21:44:28.452Z,102638.25
2023-04-04T21:49:29.986Z,102628.78
2023-04-04T21:54:31.502Z,102630.69
2023-04-04T21:59:33.098Z,102624.56
2023-04-04T22:04:34.799Z,102619.34
2023-04-04T22:09:38.622Z,102620.06
2023-04-04T22:14:43.540Z,102614.94
2023-04-04T22:19:46.668Z,102612.31
2023-04-04T22:24:51.232Z,102622.38
2023-04-04T22:29:52.803Z,102618.00
2023-04-04T22:34:54.368Z,102614.88
2023-04-04T22:39:55.921Z,102614.00
2023-04-04T22:44:57.494Z,102621.44
2023-04-04T22:50:04.567Z,102614.47
2023-04-04T22:55:07.381Z,102618.22
2023-04-04T23:00:14.605Z,102617.78
2023-04-04T23:05:17.787Z,102600.94
2023-04-04T23:10:19.500Z,102602.25
2023-04-04T23:15:21.053Z,102591.81
2023-04-04T23:20:24.022Z,102607.84
2023-04-04T23:25:26.417Z,102600.06
2023-04-04T23:30:28.994Z,102597.38
2023-04-04T23:35:30.534Z,102602.94
2023-04-04T23:40:32.072Z,102601.22
2023-04-04T23:45:37.247Z,102597.03
2023-04-04T23:50:39.021Z,102593.56
2023-04-04T23:55:40.688Z,102595.44
